createdAt,value
2023-01-25T00:01:51.184Z,100407.97
2023-01-25T00:03:53.870Z,100409.03
2023-01-25T00:06:00.623Z,100415.47
2023-01-25T00:08:02.261Z,100413.59
2023-01-25T00:10:04.125Z,100410.03
2023-01-25T00:12:05.851Z,100410.88
2023-01-25T00:14:07.767Z,100410.03
2023-01-25T00:16:09.726Z,100405.63
2023-01-25T00:18:11.267Z,100409.19
2023-01-25T00:20:12.818Z,100409.19
2023-01-25T00:22:14.371Z,100395.63
2023-01-25T00:24:16.030Z,100405.63
2023-01-25T00:26:17.879Z,100399.41
2023-01-25T00:28:21.879Z,100400.41
2023-01-25T00:30:23.745Z,100391.41
2023-01-25T00:32:34.369Z,100396.84
2023-01-25T00:34:43.747Z,100390.13
2023-01-25T00:36:45.684Z,100390.97
2023-01-25T00:38:48.495Z,100390.97
2023-01-25T00:40:52.742Z,100388.25
2023-01-25T00:42:54.482Z,100380.94
2023-01-25T00:44:56.160Z,100373.84
2023-01-25T00:46:57.830Z,100371.13
2023-01-25T00:48:59.609Z,100370.09
2023-01-25T00:51:02.099Z,100364.69
2023-01-25T00:53:03.909Z,100368.06
2023-01-25T00:55:06.322Z,100368.06
2023-01-25T00:57:09.669Z,100368.06
2023-01-25T00:59:12.633Z,100373.50
2023-01-25T01:01:15.304Z,100374.69
2023-01-25T01:03:16.974Z,100369.44
2023-01-25T01:05:20.556Z,100364.38
2023-01-25T01:07:22.470Z,100376.91
2023-01-25T01:09:27.317Z,100361.03
2023-01-25T01:11:28.895Z,100373.56
2023-01-25T01:13:33.040Z,100370.00
2023-01-25T01:15:37.597Z,100366.44
2023-01-25T01:17:39.520Z,100369.16
2023-01-25T01:19:41.525Z,100373.72
2023-01-25T01:21:43.200Z,100368.50
2023-01-25T01:23:45.097Z,100371.56
2023-01-25T01:25:46.856Z,100377.34
2023-01-25T01:27:48.730Z,100373.63
2023-01-25T01:29:50.354Z,100367.19
2023-01-25T01:31:54.028Z,100364.28
2023-01-25T01:34:01.935Z,100360.06
2023-01-25T01:36:10.247Z,100363.13
2023-01-25T01:38:11.842Z,100370.25
2023-01-25T01:40:17.315Z,100375.69
2023-01-25T01:42:19.017Z,100364.84
2023-01-25T01:44:41.810Z,100365.84
2023-01-25T01:46:49.127Z,100367.91
2023-01-25T01:48:56.348Z,100369.97
2023-01-25T01:51:05.011Z,100361.19
2023-01-25T01:53:09.191Z,100368.91
2023-01-25T01:55:18.286Z,100373.31
2023-01-25T01:57:25.850Z,100371.47
2023-01-25T01:59:34.199Z,100369.97
2023-01-25T02:01:36.091Z,100367.91
2023-01-25T02:03:38.875Z,100370.63
2023-01-25T02:06:12.543Z,100368.91
2023-01-25T02:08:16.951Z,100368.09
2023-01-25T02:10:20.382Z,100372.66
2023-01-25T02:12:23.596Z,100373.50
2023-01-25T02:14:28.511Z,100363.50
2023-01-25T02:16:30.138Z,100364.34
2023-01-25T02:18:32.116Z,100365.19
2023-01-25T02:20:47.001Z,100361.81
2023-01-25T02:23:03.882Z,100361.81
2023-01-25T02:25:10.742Z,100356.56
2023-01-25T02:27:12.541Z,100362.84
2023-01-25T02:29:14.779Z,100364.91
2023-01-25T02:31:17.885Z,100356.75
2023-01-25T02:33:19.665Z,100363.38
2023-01-25T02:35:58.596Z,100365.44
2023-01-25T02:38:00.164Z,100367.50
2023-01-25T02:40:05.766Z,100365.81
2023-01-25T02:42:07.801Z,100367.66
2023-01-25T02:44:16.263Z,100366.00
2023-01-25T02:46:30.456Z,100366.16
2023-01-25T02:48:33.488Z,100368.00
2023-01-25T02:50:35.060Z,100360.94
2023-01-25T02:52:45.459Z,100356.16
2023-01-25T02:54:53.239Z,100357.19
2023-01-25T02:56:55.380Z,100355.31
2023-01-25T02:58:59.486Z,100351.94
2023-01-25T03:01:01.830Z,100355.50
2023-01-25T03:03:03.652Z,100358.22
2023-01-25T03:05:06.703Z,100360.28
2023-01-25T03:07:08.664Z,100365.50
2023-01-25T03:09:11.668Z,100359.44
2023-01-25T03:11:17.285Z,100356.88
2023-01-25T03:13:19.360Z,100352.31
2023-01-25T03:15:25.932Z,100347.94
2023-01-25T03:17:31.270Z,100349.78
2023-01-25T03:19:33.178Z,100341.00
2023-01-25T03:21:34.858Z,100341.19
2023-01-25T03:23:37.003Z,100343.88
2023-01-25T03:25:39.062Z,100341.19
2023-01-25T03:27:46.523Z,100334.75
2023-01-25T03:29:48.423Z,100333.03
2023-01-25T03:31:57.027Z,100328.63
2023-01-25T03:33:58.779Z,100327.81
2023-01-25T03:36:06.453Z,100328.84
2023-01-25T03:38:08.181Z,100323.41
2023-01-25T03:40:11.864Z,100325.28
2023-01-25T03:42:19.454Z,100320.91
2023-01-25T03:44:22.737Z,100321.72
2023-01-25T03:46:24.779Z,100327.13
2023-01-25T03:48:28.908Z,100316.31
2023-01-25T03:50:31.044Z,100313.78
2023-01-25T03:52:38.523Z,100313.78
2023-01-25T03:54:42.459Z,100322.94
2023-01-25T03:56:45.345Z,100326.69
2023-01-25T03:58:53.720Z,100326.69
2023-01-25T04:00:57.410Z,100328.34
2023-01-25T04:02:59.260Z,100325.81
2023-01-25T04:05:02.216Z,100331.25
2023-01-25T04:07:04.214Z,100331.25
2023-01-25T04:09:07.950Z,100316.00
2023-01-25T04:11:14.760Z,100315.00
2023-01-25T04:13:21.983Z,100307.06
2023-01-25T04:15:24.755Z,100300.81
2023-01-25T04:17:26.496Z,100287.25
2023-01-25T04:19:46.990Z,100292.84
2023-01-25T04:22:02.226Z,100291.81
2023-01-25T04:24:09.397Z,100282.84
2023-01-25T04:26:16.627Z,100278.47
2023-01-25T04:28:27.775Z,100276.59
2023-01-25T04:30:29.930Z,100277.44
2023-01-25T04:32:35.364Z,100272.03
2023-01-25T04:34:38.286Z,100265.75
2023-01-25T04:36:45.916Z,100259.53
2023-01-25T04:38:48.832Z,100267.44
2023-01-25T04:40:56.191Z,100261.19
2023-01-25T04:42:57.914Z,100264.09
2023-01-25T04:44:59.644Z,100255.97
2023-01-25T04:47:01.767Z,100256.81
2023-01-25T04:49:03.682Z,100260.34
2023-01-25T04:51:05.504Z,100256.81
2023-01-25T04:53:10.246Z,100256.81
2023-01-25T04:55:12.147Z,100248.69
2023-01-25T04:57:18.022Z,100255.97
2023-01-25T04:59:24.462Z,100256.97
2023-01-25T05:01:27.208Z,100245.28
2023-01-25T05:03:29.215Z,100247.00
2023-01-25T05:05:31.338Z,100252.41
2023-01-25T05:07:35.072Z,100251.56
2023-01-25T05:09:37.427Z,100255.13
2023-01-25T05:11:39.367Z,100253.41
2023-01-25T05:13:45.138Z,100247.34
2023-01-25T05:15:59.130Z,100250.72
2023-01-25T05:18:03.182Z,100241.56
2023-01-25T05:20:09.316Z,100241.56
2023-01-25T05:22:17.307Z,100242.59
2023-01-25T05:24:24.051Z,100243.63
2023-01-25T05:26:44.807Z,100241.94
2023-01-25T05:28:46.583Z,100245.50
2023-01-25T05:30:59.461Z,100245.28
2023-01-25T05:33:02.296Z,100239.88
2023-01-25T05:35:04.223Z,100229.03
2023-01-25T05:37:07.735Z,100235.31
2023-01-25T05:39:13.061Z,100240.72
2023-01-25T05:41:14.778Z,100242.59
2023-01-25T05:43:16.675Z,100234.47
2023-01-25T05:45:18.475Z,100240.72
2023-01-25T05:47:25.450Z,100242.59
2023-01-25T05:49:29.166Z,100240.72
2023-01-25T05:51:31.438Z,100235.31
2023-01-25T05:53:42.131Z,100231.75
2023-01-25T05:55:44.113Z,100228.22
2023-01-25T05:57:51.165Z,100224.47
2023-01-25T05:59:55.988Z,100230.75
2023-01-25T06:01:58.052Z,100226.34
2023-01-25T06:03:59.616Z,100223.63
2023-01-25T06:06:06.653Z,100221.97
2023-01-25T06:08:09.516Z,100219.25
2023-01-25T06:10:20.677Z,100221.97
2023-01-25T06:12:24.667Z,100218.59
2023-01-25T06:14:26.315Z,100224.03
2023-01-25T06:16:28.294Z,100223.19
2023-01-25T06:18:56.040Z,100222.97
2023-01-25T06:21:16.460Z,100217.56
2023-01-25T06:23:18.439Z,100223.19
2023-01-25T06:25:20.075Z,100224.03
2023-01-25T06:27:22.097Z,100229.44
2023-01-25T06:29:23.724Z,100232.97
2023-01-25T06:31:25.565Z,100222.97
2023-01-25T06:33:30.485Z,100219.63
2023-01-25T06:35:36.526Z,100229.44
2023-01-25T06:37:38.307Z,100224.03
2023-01-25T06:39:39.986Z,100223.19
2023-01-25T06:41:41.668Z,100225.88
2023-01-25T06:43:50.568Z,100229.59
2023-01-25T06:45:52.186Z,100226.03
2023-01-25T06:47:53.964Z,100221.69
2023-01-25T06:49:57.960Z,100228.09
2023-01-25T06:52:01.324Z,100228.47
2023-01-25T06:54:04.456Z,100228.47
2023-01-25T06:56:13.155Z,100221.38
2023-01-25T06:58:14.844Z,100226.78
2023-01-25T07:00:17.507Z,100224.94
2023-01-25T07:02:19.160Z,100228.28
2023-01-25T07:04:20.866Z,100225.59
2023-01-25T07:06:23.417Z,100224.53
2023-01-25T07:08:25.169Z,100226.44
2023-01-25T07:10:26.905Z,100230.16
2023-01-25T07:12:30.043Z,100229.16
2023-01-25T07:14:32.328Z,100225.38
2023-01-25T07:16:37.049Z,100223.53
2023-01-25T07:18:38.901Z,100219.81
2023-01-25T07:20:40.494Z,100225.22
2023-01-25T07:22:42.228Z,100217.28
2023-01-25T07:24:49.898Z,100211.19
2023-01-25T07:26:51.523Z,100213.91
2023-01-25T07:28:54.092Z,100214.91
2023-01-25T07:30:58.419Z,100212.06
2023-01-25T07:33:00.023Z,100205.97
2023-01-25T07:35:04.313Z,100216.81
2023-01-25T07:37:06.099Z,100211.56
2023-01-25T07:39:10.682Z,100210.53
2023-01-25T07:41:13.116Z,100214.28
2023-01-25T07:43:14.853Z,100218.84
2023-01-25T07:45:16.613Z,100214.28
2023-01-25T07:47:18.477Z,100213.41
2023-01-25T07:49:20.096Z,100218.03
2023-01-25T07:51:23.201Z,100219.69
2023-01-25T07:53:24.888Z,100219.69
2023-01-25T07:55:27.836Z,100218.03
2023-01-25T07:57:29.502Z,100217.81
2023-01-25T07:59:32.132Z,100223.25
2023-01-25T08:01:45.912Z,100216.13
2023-01-25T08:03:48.186Z,100210.72
2023-01-25T08:05:50.746Z,100216.31
2023-01-25T08:07:52.289Z,100219.88
2023-01-25T08:10:03.037Z,100218.84
2023-01-25T08:12:06.794Z,100219.69
2023-01-25T08:14:09.702Z,100220.53
2023-01-25T08:16:12.415Z,100220.53
2023-01-25T08:18:14.002Z,100216.81
2023-01-25T08:20:22.573Z,100215.97
2023-01-25T08:22:24.708Z,100212.81
2023-01-25T08:24:26.841Z,100210.47
2023-01-25T08:26:29.328Z,100221.31
2023-01-25T08:28:31.124Z,100212.50
2023-01-25T08:30:32.899Z,100207.94
2023-01-25T08:32:37.237Z,100210.66
2023-01-25T08:34:41.189Z,100205.22
2023-01-25T08:36:43.044Z,100204.38
2023-01-25T08:38:46.656Z,100201.69
2023-01-25T08:40:48.498Z,100196.25
2023-01-25T08:42:52.398Z,100194.41
2023-01-25T08:44:54.193Z,100189.19
2023-01-25T08:46:56.007Z,100197.09
2023-01-25T08:48:58.223Z,100198.97
2023-01-25T08:51:03.711Z,100186.28
2023-01-25T08:53:05.271Z,100187.13
2023-01-25T08:55:07.174Z,100187.13
2023-01-25T08:57:08.936Z,100190.84
2023-01-25T08:59:12.260Z,100190.03
2023-01-25T09:01:17.040Z,100192.53
2023-01-25T09:03:18.753Z,100180.00
2023-01-25T09:05:21.725Z,100181.91
2023-01-25T09:07:23.592Z,100188.97
2023-01-25T09:09:26.507Z,100184.41
2023-01-25T09:11:28.246Z,100189.84
2023-01-25T09:13:29.894Z,100179.00
2023-01-25T09:15:31.761Z,100186.13
2023-01-25T09:17:33.379Z,100184.41
2023-01-25T09:19:35.017Z,100176.94
2023-01-25T09:21:37.785Z,100177.59
2023-01-25T09:23:50.842Z,100174.25
2023-01-25T09:26:02.923Z,100180.50
2023-01-25T09:28:11.234Z,100166.13
2023-01-25T09:30:18.363Z,100167.81
2023-01-25T09:32:24.574Z,100161.53
2023-01-25T09:34:30.065Z,100166.75
2023-01-25T09:36:32.137Z,100158.63
2023-01-25T09:38:34.176Z,100164.91
2023-01-25T09:40:41.154Z,100165.75
2023-01-25T09:42:45.612Z,100164.91
2023-01-25T09:44:58.530Z,100168.66
2023-01-25T09:47:08.848Z,100164.91
2023-01-25T09:49:55.268Z,100165.09
2023-01-25T09:52:26.949Z,100153.41
2023-01-25T09:54:39.222Z,100162.41
2023-01-25T09:56:51.921Z,100154.06
2023-01-25T09:59:00.047Z,100155.94
2023-01-25T10:01:38.751Z,100157.63
2023-01-25T10:04:04.447Z,100148.66
2023-01-25T10:06:12.929Z,100150.34
2023-01-25T10:08:42.148Z,100153.91
2023-01-25T10:10:46.575Z,100155.56
2023-01-25T10:12:48.527Z,100153.72
2023-01-25T10:14:53.507Z,100154.56
2023-01-25T10:17:04.072Z,100150.81
2023-01-25T10:19:57.861Z,100146.22
2023-01-25T10:22:23.701Z,100152.50
2023-01-25T10:24:49.091Z,100147.28
2023-01-25T10:26:57.118Z,100147.09
2023-01-25T10:29:12.640Z,100143.53
2023-01-25T10:31:22.830Z,100137.94
2023-01-25T10:33:24.557Z,100132.53
2023-01-25T10:35:41.779Z,100136.06
2023-01-25T10:37:45.978Z,100127.13
2023-01-25T10:40:00.227Z,100117.09
2023-01-25T10:42:12.974Z,100116.28
2023-01-25T10:44:27.943Z,100113.75
2023-01-25T10:46:30.875Z,100116.28
2023-01-25T10:48:38.378Z,100105.63
2023-01-25T10:50:46.574Z,100100.03
2023-01-25T10:52:58.630Z,100097.50
2023-01-25T10:55:18.775Z,100102.06
2023-01-25T10:57:25.565Z,100092.91
2023-01-25T10:59:33.011Z,100095.63
2023-01-25T11:01:37.016Z,100091.06
2023-01-25T11:03:46.240Z,100084.78
2023-01-25T11:05:58.163Z,100088.34
2023-01-25T11:08:21.561Z,100083.78
2023-01-25T11:10:30.903Z,100078.38
2023-01-25T11:12:32.927Z,100085.44
2023-01-25T11:14:34.755Z,100075.47
2023-01-25T11:16:44.990Z,100070.88
2023-01-25T11:18:55.725Z,100079.00
2023-01-25T11:21:19.928Z,100077.16
2023-01-25T11:23:24.971Z,100063.41
2023-01-25T11:25:33.053Z,100065.28
2023-01-25T11:27:34.627Z,100052.56
2023-01-25T11:29:36.298Z,100053.41
2023-01-25T11:31:41.886Z,100048.00
2023-01-25T11:33:43.676Z,100038.84
2023-01-25T11:36:01.308Z,100038.03
2023-01-25T11:38:12.401Z,100038.03
2023-01-25T11:40:32.932Z,100027.19
2023-01-25T11:42:52.272Z,100027.19
2023-01-25T11:45:27.111Z,100029.22
2023-01-25T11:47:54.931Z,100029.22
2023-01-25T11:50:10.618Z,100015.69
2023-01-25T11:52:44.800Z,100009.25
2023-01-25T11:55:17.706Z,100009.25
2023-01-25T11:57:48.290Z,100013.81
2023-01-25T11:59:59.271Z,99993.84
2023-01-25T12:02:15.828Z,99993.00
2023-01-25T12:04:37.178Z,99978.81
2023-01-25T12:07:04.025Z,99981.50
2023-01-25T12:09:24.886Z,99975.91
2023-01-25T12:11:41.734Z,99963.84
2023-01-25T12:14:04.443Z,99963.00
2023-01-25T12:16:26.836Z,99957.59
2023-01-25T12:18:49.790Z,99958.44
2023-01-25T12:21:31.353Z,99949.28
2023-01-25T12:24:04.857Z,99938.44
2023-01-25T12:26:19.175Z,99940.16
2023-01-25T12:28:26.819Z,99926.59
2023-01-25T12:30:40.277Z,99923.06
2023-01-25T12:32:59.484Z,99908.47
2023-01-25T12:35:23.901Z,99904.94
2023-01-25T12:37:32.520Z,99897.63
2023-01-25T12:39:42.633Z,99896.81
2023-01-25T12:42:04.248Z,99884.09
2023-01-25T12:44:24.705Z,99877.84
2023-01-25T12:46:32.103Z,99884.94
2023-01-25T12:48:41.283Z,99876.81
2023-01-25T12:50:57.418Z,99881.38
2023-01-25T12:53:17.307Z,99885.97
2023-01-25T12:55:19.469Z,99875.16
2023-01-25T12:57:30.348Z,99875.97
2023-01-25T12:59:59.529Z,99873.06
2023-01-25T13:02:22.795Z,99862.41
2023-01-25T13:04:39.975Z,99868.69
2023-01-25T13:06:58.428Z,99867.66
2023-01-25T13:09:22.456Z,99865.97
2023-01-25T13:11:33.871Z,99856.34
2023-01-25T13:13:35.786Z,99855.50
2023-01-25T13:15:48.558Z,99855.50
2023-01-25T13:17:50.193Z,99848.22
2023-01-25T13:19:53.402Z,99851.78
2023-01-25T13:21:58.320Z,99848.06
2023-01-25T13:24:12.273Z,99832.19
2023-01-25T13:26:29.252Z,99833.84
2023-01-25T13:28:48.913Z,99833.00
2023-01-25T13:30:55.878Z,99827.59
2023-01-25T13:33:07.572Z,99819.47
2023-01-25T13:35:27.776Z,99822.38
2023-01-25T13:37:35.169Z,99813.22
2023-01-25T13:39:36.776Z,99819.47
2023-01-25T13:41:57.333Z,99808.00
2023-01-25T13:44:26.108Z,99808.84
2023-01-25T13:46:27.851Z,99805.28
2023-01-25T13:48:31.938Z,99803.41
2023-01-25T13:50:38.225Z,99808.84
2023-01-25T13:52:59.372Z,99800.91
2023-01-25T13:55:01.832Z,99803.63
2023-01-25T13:57:12.874Z,99800.06
2023-01-25T13:59:26.647Z,99801.09
2023-01-25T14:01:30.624Z,99799.59
2023-01-25T14:03:41.701Z,99803.16
2023-01-25T14:05:51.324Z,99794.41
2023-01-25T14:07:56.192Z,99795.41
2023-01-25T14:10:00.616Z,99792.72
2023-01-25T14:12:03.718Z,99785.44
2023-01-25T14:14:17.587Z,99790.84
2023-01-25T14:16:19.309Z,99790.63
2023-01-25T14:18:25.161Z,99794.19
2023-01-25T14:20:29.956Z,99793.34
2023-01-25T14:22:37.822Z,99793.34
2023-01-25T14:24:39.811Z,99786.06
2023-01-25T14:26:42.117Z,99786.06
2023-01-25T14:28:59.213Z,99779.81
2023-01-25T14:31:06.089Z,99778.78
2023-01-25T14:33:17.033Z,99779.16
2023-01-25T14:35:43.111Z,99776.47
2023-01-25T14:37:45.003Z,99776.28
2023-01-25T14:39:48.041Z,99768.16
2023-01-25T14:42:01.470Z,99757.72
2023-01-25T14:44:12.666Z,99761.66
2023-01-25T14:46:38.987Z,99754.53
2023-01-25T14:48:45.059Z,99760.59
2023-01-25T14:50:47.293Z,99754.38
2023-01-25T14:52:49.919Z,99759.97
2023-01-25T14:54:56.246Z,99759.97
2023-01-25T14:57:01.032Z,99748.97
2023-01-25T14:59:04.827Z,99757.72
2023-01-25T15:01:06.866Z,99751.47
2023-01-25T15:03:16.761Z,99757.91
2023-01-25T15:05:21.608Z,99747.06
2023-01-25T15:07:41.684Z,99743.72
2023-01-25T15:10:02.388Z,99738.31
2023-01-25T15:12:16.152Z,99739.34
2023-01-25T15:14:20.318Z,99744.94
2023-01-25T15:16:36.291Z,99737.88
2023-01-25T15:18:52.272Z,99731.63
2023-01-25T15:20:53.881Z,99720.97
2023-01-25T15:22:57.897Z,99719.09
2023-01-25T15:24:59.539Z,99717.44
2023-01-25T15:27:01.236Z,99720.16
2023-01-25T15:29:14.903Z,99715.75
2023-01-25T15:31:28.309Z,99710.72
2023-01-25T15:33:32.421Z,99709.69
2023-01-25T15:35:34.633Z,99707.38
2023-01-25T15:37:36.251Z,99701.97
2023-01-25T15:39:41.000Z,99702.34
2023-01-25T15:41:42.851Z,99698.63
2023-01-25T15:43:46.257Z,99701.31
2023-01-25T15:45:50.336Z,99704.03
2023-01-25T15:47:52.866Z,99701.13
2023-01-25T15:49:56.731Z,99699.63
2023-01-25T15:51:58.796Z,99696.94
2023-01-25T15:54:04.045Z,99703.41
2023-01-25T15:56:15.160Z,99696.94
2023-01-25T15:58:27.376Z,99702.34
2023-01-25T16:00:31.855Z,99694.22
2023-01-25T16:02:33.763Z,99686.31
2023-01-25T16:04:37.674Z,99682.75
2023-01-25T16:06:46.503Z,99682.13
2023-01-25T16:08:49.309Z,99682.13
2023-01-25T16:10:51.666Z,99684.84
2023-01-25T16:12:55.279Z,99682.13
2023-01-25T16:14:57.596Z,99686.50
2023-01-25T16:17:05.534Z,99681.06
2023-01-25T16:19:07.419Z,99678.38
2023-01-25T16:21:12.513Z,99667.53
2023-01-25T16:23:15.030Z,99673.81
2023-01-25T16:25:16.784Z,99666.72
2023-01-25T16:27:26.630Z,99676.72
2023-01-25T16:29:28.242Z,99665.25
2023-01-25T16:31:33.124Z,99672.69
2023-01-25T16:33:35.184Z,99673.53
2023-01-25T16:35:36.970Z,99667.28
2023-01-25T16:37:38.770Z,99659.16
2023-01-25T16:39:40.572Z,99669.38
2023-01-25T16:41:42.127Z,99665.00
2023-01-25T16:43:46.795Z,99664.16
2023-01-25T16:45:48.532Z,99652.69
2023-01-25T16:47:51.536Z,99645.38
2023-01-25T16:49:55.906Z,99643.72
2023-01-25T16:51:58.722Z,99641.88
2023-01-25T16:54:00.454Z,99649.31
2023-01-25T16:56:20.150Z,99643.28
2023-01-25T16:58:24.664Z,99640.56
2023-01-25T17:00:26.410Z,99639.72
2023-01-25T17:02:30.919Z,99638.06
2023-01-25T17:04:32.563Z,99642.44
2023-01-25T17:06:37.155Z,99639.94
2023-01-25T17:08:40.177Z,99641.78
2023-01-25T17:10:52.119Z,99633.69
2023-01-25T17:12:55.617Z,99626.41
2023-01-25T17:14:59.548Z,99634.53
2023-01-25T17:17:01.620Z,99633.69
2023-01-25T17:19:06.255Z,99628.25
2023-01-25T17:21:08.060Z,99627.25
2023-01-25T17:23:09.801Z,99627.25
2023-01-25T17:25:11.560Z,99627.25
2023-01-25T17:27:16.960Z,99623.69
2023-01-25T17:29:18.832Z,99621.84
2023-01-25T17:31:23.154Z,99620.16
2023-01-25T17:33:26.586Z,99616.81
2023-01-25T17:35:28.288Z,99616.16
2023-01-25T17:37:30.055Z,99618.25
2023-01-25T17:39:33.207Z,99610.94
2023-01-25T17:41:35.379Z,99618.41
2023-01-25T17:43:37.197Z,99617.41
2023-01-25T17:45:42.159Z,99617.56
2023-01-25T17:47:43.823Z,99619.25
2023-01-25T17:49:45.542Z,99612.84
2023-01-25T17:51:47.239Z,99613.84
2023-01-25T17:53:52.645Z,99609.28
2023-01-25T17:55:54.940Z,99617.56
2023-01-25T17:57:59.487Z,99607.78
2023-01-25T18:00:01.301Z,99601.50
2023-01-25T18:02:06.456Z,99594.25
2023-01-25T18:04:08.761Z,99590.69
2023-01-25T18:06:14.073Z,99591.53
2023-01-25T18:08:16.244Z,99585.50
2023-01-25T18:10:23.846Z,99582.59
2023-01-25T18:12:31.682Z,99588.84
2023-01-25T18:14:33.819Z,99583.41
2023-01-25T18:16:41.163Z,99579.69
2023-01-25T18:18:47.309Z,99579.69
2023-01-25T18:20:51.975Z,99578.69
2023-01-25T18:22:54.014Z,99584.94
2023-01-25T18:24:58.802Z,99581.38
2023-01-25T18:27:22.477Z,99583.25
2023-01-25T18:29:49.355Z,99583.41
2023-01-25T18:31:52.810Z,99584.25
2023-01-25T18:33:54.489Z,99586.13
2023-01-25T18:36:03.849Z,99587.16
2023-01-25T18:38:05.759Z,99587.16
2023-01-25T18:40:09.927Z,99582.59
2023-01-25T18:42:11.551Z,99577.38
2023-01-25T18:44:13.222Z,99570.91
2023-01-25T18:46:14.907Z,99566.56
2023-01-25T18:48:20.269Z,99568.41
2023-01-25T18:50:23.487Z,99564.88
2023-01-25T18:52:25.522Z,99565.06
2023-01-25T18:54:27.346Z,99555.91
2023-01-25T18:56:30.215Z,99560.47
2023-01-25T18:58:36.400Z,99553.22
2023-01-25T19:00:39.377Z,99555.06
2023-01-25T19:02:41.024Z,99556.13
2023-01-25T19:04:42.828Z,99543.63
2023-01-25T19:06:44.459Z,99550.88
2023-01-25T19:08:51.821Z,99547.16
2023-01-25T19:11:05.990Z,99546.31
2023-01-25T19:13:07.775Z,99549.03
2023-01-25T19:15:10.008Z,99548.19
2023-01-25T19:17:11.909Z,99542.97
2023-01-25T19:19:16.649Z,99547.38
2023-01-25T19:21:25.017Z,99539.25
2023-01-25T19:23:32.009Z,99536.34
2023-01-25T19:25:33.748Z,99535.50
2023-01-25T19:27:35.312Z,99535.50
2023-01-25T19:29:45.911Z,99538.19
2023-01-25T19:31:47.878Z,99536.34
2023-01-25T19:33:55.524Z,99530.94
2023-01-25T19:36:04.296Z,99529.06
2023-01-25T19:38:08.909Z,99529.25
2023-01-25T19:40:11.524Z,99526.38
2023-01-25T19:42:13.187Z,99523.03
2023-01-25T19:44:15.828Z,99529.25
2023-01-25T19:46:20.648Z,99524.88
2023-01-25T19:48:27.497Z,99514.91
2023-01-25T19:50:31.922Z,99514.25
2023-01-25T19:52:36.039Z,99512.38
2023-01-25T19:54:37.585Z,99503.41
2023-01-25T19:56:41.114Z,99497.19
2023-01-25T19:58:44.674Z,99503.41
2023-01-25T20:00:46.370Z,99502.78
2023-01-25T20:02:48.059Z,99496.75
2023-01-25T20:04:51.139Z,99500.28
2023-01-25T20:06:53.065Z,99494.03
2023-01-25T20:08:54.813Z,99488.63
2023-01-25T20:11:06.108Z,99484.25
2023-01-25T20:13:07.700Z,99481.53
2023-01-25T20:15:13.322Z,99491.34
2023-01-25T20:17:18.280Z,99483.22
2023-01-25T20:19:20.080Z,99472.63
2023-01-25T20:21:23.675Z,99472.41
2023-01-25T20:23:26.241Z,99471.56
2023-01-25T20:25:28.132Z,99464.28
2023-01-25T20:27:32.741Z,99463.44
2023-01-25T20:29:37.308Z,99462.59
2023-01-25T20:31:41.549Z,99459.09
2023-01-25T20:33:43.110Z,99458.03
2023-01-25T20:35:45.810Z,99450.97
2023-01-25T20:37:49.469Z,99451.78
2023-01-25T20:39:53.622Z,99450.75
2023-01-25T20:41:58.494Z,99453.47
2023-01-25T20:44:02.219Z,99453.47
2023-01-25T20:46:04.631Z,99449.75
2023-01-25T20:48:06.785Z,99443.69
2023-01-25T20:50:09.175Z,99440.16
2023-01-25T20:52:13.734Z,99447.44
2023-01-25T20:54:16.220Z,99439.31
2023-01-25T20:56:20.276Z,99438.47
2023-01-25T20:58:22.094Z,99429.53
2023-01-25T21:00:25.582Z,99428.69
2023-01-25T21:02:27.380Z,99435.13
2023-01-25T21:04:30.913Z,99428.88
2023-01-25T21:06:34.271Z,99430.75
2023-01-25T21:08:35.980Z,99420.16
2023-01-25T21:10:37.546Z,99424.72
2023-01-25T21:12:41.179Z,99422.00
2023-01-25T21:14:46.247Z,99406.00
2023-01-25T21:16:48.031Z,99411.41
2023-01-25T21:18:58.593Z,99402.44
2023-01-25T21:21:17.577Z,99398.06
2023-01-25T21:23:21.310Z,99401.59
2023-01-25T21:25:22.877Z,99402.84
2023-01-25T21:27:29.454Z,99407.41
2023-01-25T21:29:31.139Z,99397.63
2023-01-25T21:31:35.272Z,99397.44
2023-01-25T21:33:37.982Z,99393.88
2023-01-25T21:35:39.562Z,99392.88
2023-01-25T21:37:41.698Z,99391.81
2023-01-25T21:39:43.424Z,99377.66
2023-01-25T21:41:44.991Z,99383.91
2023-01-25T21:44:08.276Z,99377.66
2023-01-25T21:46:16.441Z,99372.25
2023-01-25T21:48:38.261Z,99371.22
2023-01-25T21:51:01.416Z,99364.34
2023-01-25T21:53:03.075Z,99354.38
2023-01-25T21:55:05.183Z,99357.06
2023-01-25T21:57:08.956Z,99357.88
2023-01-25T21:59:12.510Z,99350.00
2023-01-25T22:01:14.460Z,99351.66
2023-01-25T22:03:16.553Z,99341.66
2023-01-25T22:05:18.139Z,99341.88
2023-01-25T22:07:22.430Z,99346.44
2023-01-25T22:09:24.228Z,99336.47
2023-01-25T22:11:26.164Z,99336.47
2023-01-25T22:13:31.153Z,99335.44
2023-01-25T22:15:34.173Z,99334.41
2023-01-25T22:17:36.029Z,99340.84
2023-01-25T22:19:37.872Z,99331.69
2023-01-25T22:21:39.510Z,99332.75
2023-01-25T22:23:41.152Z,99328.16
2023-01-25T22:25:42.892Z,99334.41
2023-01-25T22:27:55.724Z,99340.84
2023-01-25T22:29:57.618Z,99339.81
2023-01-25T22:32:01.206Z,99330.03
2023-01-25T22:34:03.577Z,99328.16
2023-01-25T22:36:08.508Z,99328.97
2023-01-25T22:38:10.063Z,99328.16
2023-01-25T22:40:12.423Z,99331.69
2023-01-25T22:42:14.456Z,99328.97
2023-01-25T22:44:18.560Z,99338.78
2023-01-25T22:46:25.524Z,99334.41
2023-01-25T22:48:27.746Z,99342.50
2023-01-25T22:50:29.482Z,99340.66
2023-01-25T22:52:30.970Z,99337.09
2023-01-25T22:54:32.553Z,99336.25
2023-01-25T22:56:34.522Z,99343.56
2023-01-25T22:58:37.805Z,99340.84
2023-01-25T23:00:39.300Z,99343.56
2023-01-25T23:02:40.762Z,99344.38
2023-01-25T23:04:42.440Z,99349.78
2023-01-25T23:06:44.075Z,99354.38
2023-01-25T23:08:48.518Z,99354.16
2023-01-25T23:10:50.116Z,99339.81
2023-01-25T23:12:54.138Z,99335.22
2023-01-25T23:14:59.175Z,99340.66
2023-01-25T23:17:19.620Z,99330.84
2023-01-25T23:19:26.268Z,99325.25
2023-01-25T23:21:31.102Z,99327.97
2023-01-25T23:23:33.460Z,99316.31
2023-01-25T23:25:35.122Z,99323.56
2023-01-25T23:27:39.729Z,99319.84
2023-01-25T23:29:41.661Z,99314.44
2023-01-25T23:31:43.952Z,99313.38
2023-01-25T23:33:47.352Z,99305.28
2023-01-25T23:35:49.218Z,99303.63
2023-01-25T23:37:50.797Z,99291.97
2023-01-25T23:39:52.593Z,99292.81
2023-01-25T23:41:54.288Z,99291.97
2023-01-25T23:43:56.508Z,99287.19
2023-01-25T23:45:58.489Z,99285.53
2023-01-25T23:48:00.164Z,99272.81
2023-01-25T23:50:05.273Z,99268.25
2023-01-25T23:52:06.856Z,99262.00
2023-01-25T23:54:08.726Z,99264.72
2023-01-25T23:56:14.023Z,99260.34
2023-01-25T23:58:15.629Z,99265.78
